sensor_id;sensor_type;location;lat;lon;timestamp;P1;durP1;ratioP1;P2;durP2;ratioP2
44516;SDS011;30223;17.182;-96.766;2022-10-16T00:01:36;3.10;;;1.92;;
44516;SDS011;30223;17.182;-96.766;2022-10-16T00:04:04;3.35;;;1.58;;
44516;SDS011;30223;17.182;-96.766;2022-10-16T00:06:31;1.48;;;1.38;;
44516;SDS011;30223;17.182;-96.766;2022-10-16T00:08:58;3.63;;;1.58;;
44516;SDS011;30223;17.182;-96.766;2022-10-16T00:11:26;2.00;;;0.95;;
44516;SDS011;30223;17.182;-96.766;2022-10-16T00:13:56;2.63;;;1.38;;
44516;SDS011;30223;17.182;-96.766;2022-10-16T00:16:25;3.08;;;1.23;;
44516;SDS011;30223;17.182;-96.766;2022-10-16T00:18:52;1.10;;;1.00;;
44516;SDS011;30223;17.182;-96.766;2022-10-16T00:21:21;2.13;;;0.93;;
44516;SDS011;30223;17.182;-96.766;2022-10-16T00:23:50;2.20;;;1.10;;
44516;SDS011;30223;17.182;-96.766;2022-10-16T00:26:18;2.45;;;1.10;;
44516;SDS011;30223;17.182;-96.766;2022-10-16T00:28:46;1.45;;;0.90;;
44516;SDS011;30223;17.182;-96.766;2022-10-16T00:31:17;2.20;;;1.05;;
44516;SDS011;30223;17.182;-96.766;2022-10-16T00:33:45;1.20;;;1.00;;
44516;SDS011;30223;17.182;-96.766;2022-10-16T00:36:13;2.78;;;0.95;;
44516;SDS011;30223;17.182;-96.766;2022-10-16T00:38:41;1.60;;;1.08;;
44516;SDS011;30223;17.182;-96.766;2022-10-16T00:41:09;1.30;;;0.95;;
44516;SDS011;30223;17.182;-96.766;2022-10-16T00:46:54;1.50;;;1.38;;
44516;SDS011;30223;17.182;-96.766;2022-10-16T00:49:03;0.82;;;0.80;;
44516;SDS011;30223;17.182;-96.766;2022-10-16T00:51:45;1.75;;;1.20;;
44516;SDS011;30223;17.182;-96.766;2022-10-16T00:54:19;1.45;;;0.80;;
44516;SDS011;30223;17.182;-96.766;2022-10-16T00:56:52;1.48;;;1.05;;
44516;SDS011;30223;17.182;-96.766;2022-10-16T00:59:23;1.45;;;1.02;;
44516;SDS011;30223;17.182;-96.766;2022-10-16T01:01:56;5.60;;;1.60;;
44516;SDS011;30223;17.182;-96.766;2022-10-16T01:04:23;3.55;;;1.63;;
44516;SDS011;30223;17.182;-96.766;2022-10-16T01:09:46;1.20;;;0.98;;
44516;SDS011;30223;17.182;-96.766;2022-10-16T01:12:38;2.63;;;1.85;;
44516;SDS011;30223;17.182;-96.766;2022-10-16T01:15:15;4.72;;;1.98;;
44516;SDS011;30223;17.182;-96.766;2022-10-16T01:17:49;4.43;;;1.67;;
44516;SDS011;30223;17.182;-96.766;2022-10-16T01:20:27;2.28;;;1.15;;
44516;SDS011;30223;17.182;-96.766;2022-10-16T01:29:16;2.50;;;1.30;;
44516;SDS011;30223;17.182;-96.766;2022-10-16T01:31:19;6.72;;;2.05;;
44516;SDS011;30223;17.182;-96.766;2022-10-16T01:33:56;4.45;;;1.98;;
44516;SDS011;30223;17.182;-96.766;2022-10-16T01:36:36;5.38;;;1.80;;
44516;SDS011;30223;17.182;-96.766;2022-10-16T01:39:06;3.72;;;1.40;;
44516;SDS011;30223;17.182;-96.766;2022-10-16T01:41:41;1.75;;;1.25;;
44516;SDS011;30223;17.182;-96.766;2022-10-16T01:44:17;1.98;;;1.27;;
44516;SDS011;30223;17.182;-96.766;2022-10-16T01:46:50;4.20;;;1.70;;
44516;SDS011;30223;17.182;-96.766;2022-10-16T01:49:18;2.83;;;2.00;;
44516;SDS011;30223;17.182;-96.766;2022-10-16T01:51:49;2.72;;;1.52;;
44516;SDS011;30223;17.182;-96.766;2022-10-16T01:54:19;3.20;;;2.10;;
44516;SDS011;30223;17.182;-96.766;2022-10-16T01:56:48;3.53;;;2.40;;
44516;SDS011;30223;17.182;-96.766;2022-10-16T01:59:18;4.20;;;2.58;;
44516;SDS011;30223;17.182;-96.766;2022-10-16T02:01:47;3.03;;;2.17;;
44516;SDS011;30223;17.182;-96.766;2022-10-16T02:04:36;4.15;;;2.97;;
44516;SDS011;30223;17.182;-96.766;2022-10-16T02:07:08;3.85;;;2.33;;
44516;SDS011;30223;17.182;-96.766;2022-10-16T02:09:35;5.53;;;2.85;;
44516;SDS011;30223;17.182;-96.766;2022-10-16T02:12:08;2.85;;;2.20;;
44516;SDS011;30223;17.182;-96.766;2022-10-16T02:14:56;3.05;;;2.30;;
44516;SDS011;30223;17.182;-96.766;2022-10-16T02:17:23;5.18;;;3.63;;
44516;SDS011;30223;17.182;-96.766;2022-10-16T02:19:51;4.00;;;2.40;;
44516;SDS011;30223;17.182;-96.766;2022-10-16T02:22:34;3.33;;;2.45;;
44516;SDS011;30223;17.182;-96.766;2022-10-16T02:25:06;2.90;;;2.40;;
44516;SDS011;30223;17.182;-96.766;2022-10-16T02:33:00;2.87;;;1.30;;
44516;SDS011;30223;17.182;-96.766;2022-10-16T02:35:29;3.45;;;1.52;;
44516;SDS011;30223;17.182;-96.766;2022-10-16T02:37:57;2.53;;;1.88;;
44516;SDS011;30223;17.182;-96.766;2022-10-16T02:40:24;3.70;;;2.03;;
44516;SDS011;30223;17.182;-96.766;2022-10-16T02:42:52;3.97;;;1.80;;
44516;SDS011;30223;17.182;-96.766;2022-10-16T02:45:20;3.45;;;2.58;;
44516;SDS011;30223;17.182;-96.766;2022-10-16T02:47:48;13.80;;;1.60;;
44516;SDS011;30223;17.182;-96.766;2022-10-16T02:50:14;2.10;;;1.88;;
44516;SDS011;30223;17.182;-96.766;2022-10-16T02:52:41;2.70;;;2.00;;
44516;SDS011;30223;17.182;-96.766;2022-10-16T02:55:08;2.58;;;1.30;;
44516;SDS011;30223;17.182;-96.766;2022-10-16T02:57:35;3.63;;;1.98;;
44516;SDS011;30223;17.182;-96.766;2022-10-16T03:00:03;3.63;;;2.80;;
44516;SDS011;30223;17.182;-96.766;2022-10-16T03:02:31;3.33;;;2.67;;
44516;SDS011;30223;17.182;-96.766;2022-10-16T03:04:57;3.78;;;1.63;;
44516;SDS011;30223;17.182;-96.766;2022-10-16T03:07:24;3.28;;;2.25;;
44516;SDS011;30223;17.182;-96.766;2022-10-16T03:09:50;5.93;;;1.80;;
44516;SDS011;30223;17.182;-96.766;2022-10-16T03:12:17;2.70;;;2.35;;
44516;SDS011;30223;17.182;-96.766;2022-10-16T03:14:44;2.05;;;1.52;;
44516;SDS011;30223;17.182;-96.766;2022-10-16T03:17:10;3.15;;;2.35;;
44516;SDS011;30223;17.182;-96.766;2022-10-16T03:19:38;4.30;;;2.00;;
44516;SDS011;30223;17.182;-96.766;2022-10-16T03:22:05;3.65;;;2.80;;
44516;SDS011;30223;17.182;-96.766;2022-10-16T03:24:31;5.20;;;2.58;;
44516;SDS011;30223;17.182;-96.766;2022-10-16T03:26:58;6.78;;;3.10;;
44516;SDS011;30223;17.182;-96.766;2022-10-16T03:29:25;5.43;;;2.65;;
44516;SDS011;30223;17.182;-96.766;2022-10-16T03:31:55;5.72;;;2.53;;
44516;SDS011;30223;17.182;-96.766;2022-10-16T03:34:22;5.93;;;2.53;;
44516;SDS011;30223;17.182;-96.766;2022-10-16T03:36:48;4.45;;;2.60;;
44516;SDS011;30223;17.182;-96.766;2022-10-16T03:39:15;8.43;;;2.53;;
44516;SDS011;30223;17.182;-96.766;2022-10-16T03:41:41;3.10;;;2.50;;
44516;SDS011;30223;17.182;-96.766;2022-10-16T03:44:08;3.15;;;2.22;;
44516;SDS011;30223;17.182;-96.766;2022-10-16T03:46:34;5.13;;;2.47;;
44516;SDS011;30223;17.182;-96.766;2022-10-16T03:49:01;5.55;;;2.30;;
44516;SDS011;30223;17.182;-96.766;2022-10-16T03:51:28;4.38;;;1.90;;
44516;SDS011;30223;17.182;-96.766;2022-10-16T03:53:54;3.35;;;1.75;;
44516;SDS011;30223;17.182;-96.766;2022-10-16T03:56:21;2.92;;;2.10;;
44516;SDS011;30223;17.182;-96.766;2022-10-16T03:58:48;5.00;;;2.22;;
44516;SDS011;30223;17.182;-96.766;2022-10-16T04:01:14;9.63;;;2.63;;
44516;SDS011;30223;17.182;-96.766;2022-10-16T04:03:41;4.13;;;2.53;;
44516;SDS011;30223;17.182;-96.766;2022-10-16T04:06:07;3.38;;;2.88;;
44516;SDS011;30223;17.182;-96.766;2022-10-16T04:08:34;4.75;;;2.58;;
44516;SDS011;30223;17.182;-96.766;2022-10-16T04:11:02;2.50;;;2.28;;
44516;SDS011;30223;17.182;-96.766;2022-10-16T04:13:29;2.58;;;2.22;;
44516;SDS011;30223;17.182;-96.766;2022-10-16T04:15:55;4.13;;;2.25;;
44516;SDS011;30223;17.182;-96.766;2022-10-16T04:18:22;3.88;;;2.15;;
44516;SDS011;30223;17.182;-96.766;2022-10-16T04:20:52;3.53;;;2.70;;
44516;SDS011;30223;17.182;-96.766;2022-10-16T04:23:19;3.58;;;3.13;;
44516;SDS011;30223;17.182;-96.766;2022-10-16T04:25:48;4.80;;;3.67;;
44516;SDS011;30223;17.182;-96.766;2022-10-16T04:28:14;2.33;;;2.10;;
44516;SDS011;30223;17.182;-96.766;2022-10-16T04:30:41;3.42;;;2.13;;
44516;SDS011;30223;17.182;-96.766;2022-10-16T04:33:08;5.55;;;2.72;;
44516;SDS011;30223;17.182;-96.766;2022-10-16T04:35:35;4.13;;;2.95;;
44516;SDS011;30223;17.182;-96.766;2022-10-16T04:38:02;4.53;;;3.33;;
44516;SDS011;30223;17.182;-96.766;2022-10-16T04:40:28;5.03;;;3.40;;
44516;SDS011;30223;17.182;-96.766;2022-10-16T04:42:58;4.45;;;2.83;;
44516;SDS011;30223;17.182;-96.766;2022-10-16T04:45:25;4.82;;;2.95;;
44516;SDS011;30223;17.182;-96.766;2022-10-16T04:47:51;3.08;;;2.30;;
44516;SDS011;30223;17.182;-96.766;2022-10-16T04:50:18;4.60;;;2.67;;
44516;SDS011;30223;17.182;-96.766;2022-10-16T04:52:45;4.53;;;1.95;;
44516;SDS011;30223;17.182;-96.766;2022-10-16T04:55:11;2.25;;;2.05;;
44516;SDS011;30223;17.182;-96.766;2022-10-16T04:57:38;4.40;;;2.15;;
44516;SDS011;30223;17.182;-96.766;2022-10-16T05:00:05;3.17;;;2.47;;
44516;SDS011;30223;17.182;-96.766;2022-10-16T05:02:33;2.20;;;1.40;;
44516;SDS011;30223;17.182;-96.766;2022-10-16T05:04:59;3.38;;;2.60;;
44516;SDS011;30223;17.182;-96.766;2022-10-16T05:07:26;4.03;;;2.10;;
44516;SDS011;30223;17.182;-96.766;2022-10-16T05:09:53;3.13;;;1.88;;
44516;SDS011;30223;17.182;-96.766;2022-10-16T05:12:19;3.15;;;1.88;;
44516;SDS011;30223;17.182;-96.766;2022-10-16T05:14:46;4.85;;;1.88;;
44516;SDS011;30223;17.182;-96.766;2022-10-16T05:17:12;3.83;;;2.10;;
44516;SDS011;30223;17.182;-96.766;2022-10-16T05:19:39;2.35;;;1.73;;
44516;SDS011;30223;17.182;-96.766;2022-10-16T05:22:05;2.92;;;1.88;;
44516;SDS011;30223;17.182;-96.766;2022-10-16T05:24:32;2.90;;;2.40;;
44516;SDS011;30223;17.182;-96.766;2022-10-16T05:26:59;3.15;;;1.60;;
44516;SDS011;30223;17.182;-96.766;2022-10-16T05:29:26;5.07;;;1.58;;
44516;SDS011;30223;17.182;-96.766;2022-10-16T05:31:53;5.97;;;2.75;;
44516;SDS011;30223;17.182;-96.766;2022-10-16T05:34:19;3.63;;;1.88;;
44516;SDS011;30223;17.182;-96.766;2022-10-16T05:36:46;2.85;;;1.73;;
44516;SDS011;30223;17.182;-96.766;2022-10-16T05:39:14;2.40;;;1.63;;
44516;SDS011;30223;17.182;-96.766;2022-10-16T05:41:41;2.65;;;1.40;;
44516;SDS011;30223;17.182;-96.766;2022-10-16T05:44:08;4.13;;;1.38;;
44516;SDS011;30223;17.182;-96.766;2022-10-16T05:46:35;2.25;;;1.33;;
44516;SDS011;30223;17.182;-96.766;2022-10-16T05:49:01;2.47;;;1.70;;
44516;SDS011;30223;17.182;-96.766;2022-10-16T05:51:28;2.25;;;1.80;;
44516;SDS011;30223;17.182;-96.766;2022-10-16T05:53:54;2.42;;;1.35;;
44516;SDS011;30223;17.182;-96.766;2022-10-16T05:56:21;3.08;;;1.35;;
44516;SDS011;30223;17.182;-96.766;2022-10-16T05:58:47;2.35;;;1.55;;
44516;SDS011;30223;17.182;-96.766;2022-10-16T06:01:16;4.85;;;1.95;;
44516;SDS011;30223;17.182;-96.766;2022-10-16T06:06:13;1.83;;;1.42;;
44516;SDS011;30223;17.182;-96.766;2022-10-16T06:08:42;4.63;;;1.48;;
44516;SDS011;30223;17.182;-96.766;2022-10-16T06:11:11;2.72;;;1.48;;
44516;SDS011;30223;17.182;-96.766;2022-10-16T06:13:40;4.38;;;1.42;;
44516;SDS011;30223;17.182;-96.766;2022-10-16T06:16:08;2.25;;;1.52;;
44516;SDS011;30223;17.182;-96.766;2022-10-16T06:18:35;8.13;;;1.58;;
44516;SDS011;30223;17.182;-96.766;2022-10-16T06:21:09;2.17;;;1.52;;
44516;SDS011;30223;17.182;-96.766;2022-10-16T06:23:37;2.25;;;1.50;;
44516;SDS011;30223;17.182;-96.766;2022-10-16T06:26:12;3.80;;;1.55;;
44516;SDS011;30223;17.182;-96.766;2022-10-16T06:28:39;5.55;;;1.92;;
44516;SDS011;30223;17.182;-96.766;2022-10-16T06:31:07;3.90;;;1.70;;
44516;SDS011;30223;17.182;-96.766;2022-10-16T06:33:35;6.73;;;1.67;;
44516;SDS011;30223;17.182;-96.766;2022-10-16T06:36:06;1.60;;;1.35;;
44516;SDS011;30223;17.182;-96.766;2022-10-16T06:38:34;2.20;;;1.13;;
44516;SDS011;30223;17.182;-96.766;2022-10-16T06:41:02;1.38;;;1.02;;
44516;SDS011;30223;17.182;-96.766;2022-10-16T06:43:30;1.63;;;1.03;;
44516;SDS011;30223;17.182;-96.766;2022-10-16T06:45:58;1.38;;;1.15;;
44516;SDS011;30223;17.182;-96.766;2022-10-16T06:48:26;4.97;;;1.25;;
44516;SDS011;30223;17.182;-96.766;2022-10-16T06:50:57;1.88;;;1.33;;
44516;SDS011;30223;17.182;-96.766;2022-10-16T06:53:29;2.08;;;1.38;;
44516;SDS011;30223;17.182;-96.766;2022-10-16T06:58:23;2.40;;;1.63;;
44516;SDS011;30223;17.182;-96.766;2022-10-16T07:00:54;1.83;;;1.10;;
44516;SDS011;30223;17.182;-96.766;2022-10-16T07:03:22;1.95;;;1.10;;
44516;SDS011;30223;17.182;-96.766;2022-10-16T07:05:49;2.25;;;1.30;;
44516;SDS011;30223;17.182;-96.766;2022-10-16T07:08:15;5.43;;;1.35;;
44516;SDS011;30223;17.182;-96.766;2022-10-16T07:10:42;2.58;;;1.83;;
44516;SDS011;30223;17.182;-96.766;2022-10-16T07:13:08;3.85;;;1.30;;
44516;SDS011;30223;17.182;-96.766;2022-10-16T07:15:38;1.95;;;1.52;;
44516;SDS011;30223;17.182;-96.766;2022-10-16T07:18:05;5.15;;;1.52;;
44516;SDS011;30223;17.182;-96.766;2022-10-16T07:20:32;1.98;;;1.75;;
44516;SDS011;30223;17.182;-96.766;2022-10-16T07:22:58;2.00;;;1.20;;
44516;SDS011;30223;17.182;-96.766;2022-10-16T07:25:25;8.63;;;1.40;;
44516;SDS011;30223;17.182;-96.766;2022-10-16T07:27:51;1.38;;;1.27;;
44516;SDS011;30223;17.182;-96.766;2022-10-16T07:30:22;3.88;;;1.40;;
44516;SDS011;30223;17.182;-96.766;2022-10-16T07:32:48;2.83;;;1.48;;
44516;SDS011;30223;17.182;-96.766;2022-10-16T07:35:15;1.83;;;1.33;;
44516;SDS011;30223;17.182;-96.766;2022-10-16T07:37:45;2.00;;;1.38;;
44516;SDS011;30223;17.182;-96.766;2022-10-16T07:40:12;3.35;;;1.42;;
44516;SDS011;30223;17.182;-96.766;2022-10-16T07:42:38;1.40;;;1.30;;
44516;SDS011;30223;17.182;-96.766;2022-10-16T07:45:05;1.50;;;1.20;;
44516;SDS011;30223;17.182;-96.766;2022-10-16T07:47:32;2.13;;;1.67;;
44516;SDS011;30223;17.182;-96.766;2022-10-16T07:49:58;1.58;;;1.38;;
44516;SDS011;30223;17.182;-96.766;2022-10-16T07:52:25;4.15;;;1.52;;
44516;SDS011;30223;17.182;-96.766;2022-10-16T07:54:52;1.40;;;1.13;;
44516;SDS011;30223;17.182;-96.766;2022-10-16T07:57:18;2.28;;;1.60;;
44516;SDS011;30223;17.182;-96.766;2022-10-16T07:59:45;3.38;;;1.42;;
44516;SDS011;30223;17.182;-96.766;2022-10-16T08:02:12;3.15;;;1.80;;
44516;SDS011;30223;17.182;-96.766;2022-10-16T08:04:39;2.22;;;1.67;;
44516;SDS011;30223;17.182;-96.766;2022-10-16T08:07:06;1.48;;;1.23;;
44516;SDS011;30223;17.182;-96.766;2022-10-16T08:09:34;4.15;;;2.22;;
44516;SDS011;30223;17.182;-96.766;2022-10-16T08:12:00;3.22;;;1.77;;
44516;SDS011;30223;17.182;-96.766;2022-10-16T08:14:27;2.83;;;1.70;;
44516;SDS011;30223;17.182;-96.766;2022-10-16T08:16:54;2.25;;;1.08;;
44516;SDS011;30223;17.182;-96.766;2022-10-16T08:19:20;2.72;;;1.38;;
44516;SDS011;30223;17.182;-96.766;2022-10-16T08:21:47;1.92;;;1.52;;
44516;SDS011;30223;17.182;-96.766;2022-10-16T08:24:14;2.28;;;1.60;;
44516;SDS011;30223;17.182;-96.766;2022-10-16T08:26:40;3.97;;;1.60;;
44516;SDS011;30223;17.182;-96.766;2022-10-16T08:29:07;3.15;;;1.58;;
44516;SDS011;30223;17.182;-96.766;2022-10-16T08:31:33;2.28;;;1.50;;
44516;SDS011;30223;17.182;-96.766;2022-10-16T08:34:00;3.53;;;1.38;;
44516;SDS011;30223;17.182;-96.766;2022-10-16T08:36:26;2.10;;;1.90;;
44516;SDS011;30223;17.182;-96.766;2022-10-16T08:38:53;4.30;;;1.83;;
44516;SDS011;30223;17.182;-96.766;2022-10-16T08:47:06;2.03;;;1.10;;
44516;SDS011;30223;17.182;-96.766;2022-10-16T08:50:00;2.13;;;1.75;;
44516;SDS011;30223;17.182;-96.766;2022-10-16T08:52:35;2.00;;;1.58;;
44516;SDS011;30223;17.182;-96.766;2022-10-16T08:55:06;1.98;;;1.33;;
44516;SDS011;30223;17.182;-96.766;2022-10-16T08:57:42;2.30;;;1.48;;
44516;SDS011;30223;17.182;-96.766;2022-10-16T09:00:12;3.50;;;1.27;;
44516;SDS011;30223;17.182;-96.766;2022-10-16T09:02:41;2.88;;;2.13;;
44516;SDS011;30223;17.182;-96.766;2022-10-16T09:05:22;1.10;;;0.88;;
44516;SDS011;30223;17.182;-96.766;2022-10-16T09:16:46;3.60;;;1.40;;
44516;SDS011;30223;17.182;-96.766;2022-10-16T09:19:26;5.35;;;1.77;;
44516;SDS011;30223;17.182;-96.766;2022-10-16T09:21:57;4.00;;;1.45;;
44516;SDS011;30223;17.182;-96.766;2022-10-16T09:24:28;2.60;;;1.85;;
44516;SDS011;30223;17.182;-96.766;2022-10-16T09:26:56;2.38;;;1.42;;
44516;SDS011;30223;17.182;-96.766;2022-10-16T09:29:22;1.13;;;1.02;;
44516;SDS011;30223;17.182;-96.766;2022-10-16T09:31:50;5.55;;;1.92;;
44516;SDS011;30223;17.182;-96.766;2022-10-16T09:34:23;2.28;;;1.70;;
44516;SDS011;30223;17.182;-96.766;2022-10-16T09:36:59;2.88;;;1.42;;
44516;SDS011;30223;17.182;-96.766;2022-10-16T09:39:29;1.85;;;1.35;;
44516;SDS011;30223;17.182;-96.766;2022-10-16T09:41:56;1.50;;;1.33;;
44516;SDS011;30223;17.182;-96.766;2022-10-16T09:44:29;1.92;;;1.30;;
44516;SDS011;30223;17.182;-96.766;2022-10-16T09:47:03;1.65;;;1.35;;
44516;SDS011;30223;17.182;-96.766;2022-10-16T09:49:31;1.77;;;1.20;;
44516;SDS011;30223;17.182;-96.766;2022-10-16T09:52:10;4.35;;;1.50;;
44516;SDS011;30223;17.182;-96.766;2022-10-16T09:54:48;1.83;;;1.20;;
44516;SDS011;30223;17.182;-96.766;2022-10-16T09:57:19;3.03;;;1.02;;
44516;SDS011;30223;17.182;-96.766;2022-10-16T09:59:51;1.73;;;1.27;;
44516;SDS011;30223;17.182;-96.766;2022-10-16T10:02:37;2.35;;;1.70;;
44516;SDS011;30223;17.182;-96.766;2022-10-16T10:05:04;5.18;;;1.27;;
44516;SDS011;30223;17.182;-96.766;2022-10-16T10:07:33;5.43;;;1.52;;
44516;SDS011;30223;17.182;-96.766;2022-10-16T10:10:50;1.85;;;1.23;;
44516;SDS011;30223;17.182;-96.766;2022-10-16T10:12:58;4.25;;;1.20;;
44516;SDS011;30223;17.182;-96.766;2022-10-16T10:15:27;2.08;;;1.08;;
44516;SDS011;30223;17.182;-96.766;2022-10-16T10:18:00;1.80;;;1.23;;
44516;SDS011;30223;17.182;-96.766;2022-10-16T10:20:34;2.60;;;1.80;;
44516;SDS011;30223;17.182;-96.766;2022-10-16T10:23:23;2.00;;;1.48;;
44516;SDS011;30223;17.182;-96.766;2022-10-16T10:26:03;4.22;;;1.25;;
44516;SDS011;30223;17.182;-96.766;2022-10-16T10:31:34;1.60;;;1.40;;
44516;SDS011;30223;17.182;-96.766;2022-10-16T10:34:11;2.05;;;1.30;;
44516;SDS011;30223;17.182;-96.766;2022-10-16T10:36:59;3.72;;;1.65;;
44516;SDS011;30223;17.182;-96.766;2022-10-16T10:39:46;1.90;;;1.00;;
44516;SDS011;30223;17.182;-96.766;2022-10-16T10:42:27;1.17;;;1.08;;
44516;SDS011;30223;17.182;-96.766;2022-10-16T10:45:11;2.55;;;1.77;;
44516;SDS011;30223;17.182;-96.766;2022-10-16T11:01:32;4.68;;;1.98;;
44516;SDS011;30223;17.182;-96.766;2022-10-16T11:04:14;2.65;;;1.58;;
44516;SDS011;30223;17.182;-96.766;2022-10-16T11:07:04;3.25;;;1.73;;
44516;SDS011;30223;17.182;-96.766;2022-10-16T11:09:36;3.58;;;1.02;;
44516;SDS011;30223;17.182;-96.766;2022-10-16T11:12:20;3.05;;;1.70;;
44516;SDS011;30223;17.182;-96.766;2022-10-16T11:17:42;3.40;;;2.15;;
44516;SDS011;30223;17.182;-96.766;2022-10-16T11:20:20;3.80;;;1.58;;
44516;SDS011;30223;17.182;-96.766;2022-10-16T11:22:52;3.08;;;2.30;;
44516;SDS011;30223;17.182;-96.766;2022-10-16T11:25:27;2.28;;;1.60;;
44516;SDS011;30223;17.182;-96.766;2022-10-16T11:30:39;2.55;;;1.35;;
44516;SDS011;30223;17.182;-96.766;2022-10-16T11:36:08;2.67;;;1.87;;
44516;SDS011;30223;17.182;-96.766;2022-10-16T11:39:00;1.77;;;1.63;;
44516;SDS011;30223;17.182;-96.766;2022-10-16T11:50:28;4.90;;;2.00;;
44516;SDS011;30223;17.182;-96.766;2022-10-16T11:55:41;4.95;;;2.75;;
44516;SDS011;30223;17.182;-96.766;2022-10-16T12:06:13;3.73;;;2.20;;
44516;SDS011;30223;17.182;-96.766;2022-10-16T12:08:54;2.83;;;2.00;;
44516;SDS011;30223;17.182;-96.766;2022-10-16T12:11:31;4.13;;;2.33;;
44516;SDS011;30223;17.182;-96.766;2022-10-16T12:14:07;3.22;;;2.17;;
44516;SDS011;30223;17.182;-96.766;2022-10-16T12:17:00;6.35;;;2.83;;
44516;SDS011;30223;17.182;-96.766;2022-10-16T12:22:25;2.33;;;1.48;;
44516;SDS011;30223;17.182;-96.766;2022-10-16T12:24:55;6.90;;;1.90;;
44516;SDS011;30223;17.182;-96.766;2022-10-16T12:27:24;6.15;;;1.88;;
44516;SDS011;30223;17.182;-96.766;2022-10-16T12:29:58;3.42;;;1.48;;
44516;SDS011;30223;17.182;-96.766;2022-10-16T12:32:28;4.10;;;2.08;;
44516;SDS011;30223;17.182;-96.766;2022-10-16T12:35:00;5.70;;;1.65;;
44516;SDS011;30223;17.182;-96.766;2022-10-16T12:37:30;2.57;;;1.80;;
44516;SDS011;30223;17.182;-96.766;2022-10-16T12:40:12;2.80;;;2.20;;
44516;SDS011;30223;17.182;-96.766;2022-10-16T12:42:41;3.50;;;1.50;;
44516;SDS011;30223;17.182;-96.766;2022-10-16T12:45:26;2.97;;;2.13;;
44516;SDS011;30223;17.182;-96.766;2022-10-16T12:47:56;4.53;;;2.38;;
44516;SDS011;30223;17.182;-96.766;2022-10-16T12:50:29;3.60;;;2.00;;
44516;SDS011;30223;17.182;-96.766;2022-10-16T12:53:17;3.53;;;2.40;;
44516;SDS011;30223;17.182;-96.766;2022-10-16T12:55:50;2.60;;;1.48;;
44516;SDS011;30223;17.182;-96.766;2022-10-16T13:01:10;3.33;;;2.00;;
44516;SDS011;30223;17.182;-96.766;2022-10-16T13:17:12;5.20;;;3.40;;
44516;SDS011;30223;17.182;-96.766;2022-10-16T13:19:50;4.32;;;3.15;;
44516;SDS011;30223;17.182;-96.766;2022-10-16T13:30:31;3.95;;;2.70;;
44516;SDS011;30223;17.182;-96.766;2022-10-16T13:33:12;3.67;;;2.33;;
44516;SDS011;30223;17.182;-96.766;2022-10-16T13:35:52;3.97;;;1.50;;
44516;SDS011;30223;17.182;-96.766;2022-10-16T13:38:21;2.85;;;2.10;;
44516;SDS011;30223;17.182;-96.766;2022-10-16T13:40:54;4.85;;;2.60;;
44516;SDS011;30223;17.182;-96.766;2022-10-16T13:43:41;6.10;;;2.45;;
44516;SDS011;30223;17.182;-96.766;2022-10-16T13:49:05;5.65;;;2.10;;
44516;SDS011;30223;17.182;-96.766;2022-10-16T13:51:41;2.72;;;1.85;;
44516;SDS011;30223;17.182;-96.766;2022-10-16T13:54:23;2.90;;;2.03;;
44516;SDS011;30223;17.182;-96.766;2022-10-16T13:56:51;3.30;;;2.20;;
44516;SDS011;30223;17.182;-96.766;2022-10-16T13:59:32;6.68;;;2.80;;
44516;SDS011;30223;17.182;-96.766;2022-10-16T14:02:04;6.30;;;2.05;;
44516;SDS011;30223;17.182;-96.766;2022-10-16T14:04:47;2.33;;;1.75;;
44516;SDS011;30223;17.182;-96.766;2022-10-16T14:07:23;3.53;;;1.88;;
44516;SDS011;30223;17.182;-96.766;2022-10-16T14:09:55;2.15;;;1.65;;
44516;SDS011;30223;17.182;-96.766;2022-10-16T14:12:24;2.60;;;1.67;;
44516;SDS011;30223;17.182;-96.766;2022-10-16T14:14:51;4.50;;;2.25;;
44516;SDS011;30223;17.182;-96.766;2022-10-16T14:17:26;1.98;;;1.58;;
44516;SDS011;30223;17.182;-96.766;2022-10-16T14:19:57;3.42;;;1.77;;
44516;SDS011;30223;17.182;-96.766;2022-10-16T14:22:30;2.88;;;2.00;;
44516;SDS011;30223;17.182;-96.766;2022-10-16T14:27:56;2.58;;;2.00;;
44516;SDS011;30223;17.182;-96.766;2022-10-16T14:30:35;2.10;;;1.90;;
44516;SDS011;30223;17.182;-96.766;2022-10-16T14:33:06;2.47;;;1.90;;
44516;SDS011;30223;17.182;-96.766;2022-10-16T14:35:59;3.30;;;2.10;;
44516;SDS011;30223;17.182;-96.766;2022-10-16T14:38:29;4.13;;;1.67;;
44516;SDS011;30223;17.182;-96.766;2022-10-16T14:40:58;3.40;;;1.70;;
44516;SDS011;30223;17.182;-96.766;2022-10-16T14:43:33;2.78;;;1.85;;
44516;SDS011;30223;17.182;-96.766;2022-10-16T14:46:03;4.03;;;1.83;;
44516;SDS011;30223;17.182;-96.766;2022-10-16T14:48:39;4.60;;;1.75;;
44516;SDS011;30223;17.182;-96.766;2022-10-16T14:51:13;6.82;;;2.65;;
44516;SDS011;30223;17.182;-96.766;2022-10-16T14:53:40;2.95;;;2.40;;
44516;SDS011;30223;17.182;-96.766;2022-10-16T14:56:07;3.50;;;2.47;;
44516;SDS011;30223;17.182;-96.766;2022-10-16T14:58:40;7.93;;;1.63;;
44516;SDS011;30223;17.182;-96.766;2022-10-16T15:01:07;3.72;;;2.60;;
44516;SDS011;30223;17.182;-96.766;2022-10-16T15:03:37;2.10;;;1.80;;
44516;SDS011;30223;17.182;-96.766;2022-10-16T15:06:04;4.15;;;2.05;;
44516;SDS011;30223;17.182;-96.766;2022-10-16T15:08:39;5.57;;;2.35;;
44516;SDS011;30223;17.182;-96.766;2022-10-16T15:11:16;3.13;;;1.92;;
44516;SDS011;30223;17.182;-96.766;2022-10-16T15:13:44;5.43;;;2.40;;
44516;SDS011;30223;17.182;-96.766;2022-10-16T15:16:15;4.55;;;2.40;;
44516;SDS011;30223;17.182;-96.766;2022-10-16T15:18:42;3.90;;;1.98;;
44516;SDS011;30223;17.182;-96.766;2022-10-16T15:21:31;3.88;;;2.63;;
44516;SDS011;30223;17.182;-96.766;2022-10-16T15:23:57;4.60;;;3.00;;
44516;SDS011;30223;17.182;-96.766;2022-10-16T15:26:27;6.07;;;3.53;;
44516;SDS011;30223;17.182;-96.766;2022-10-16T15:28:55;3.33;;;2.65;;
44516;SDS011;30223;17.182;-96.766;2022-10-16T15:31:22;10.73;;;5.32;;
44516;SDS011;30223;17.182;-96.766;2022-10-16T15:33:50;6.47;;;3.63;;
44516;SDS011;30223;17.182;-96.766;2022-10-16T15:36:27;9.13;;;4.80;;
44516;SDS011;30223;17.182;-96.766;2022-10-16T15:38:55;8.30;;;5.35;;
44516;SDS011;30223;17.182;-96.766;2022-10-16T15:41:22;6.05;;;4.68;;
44516;SDS011;30223;17.182;-96.766;2022-10-16T15:43:49;7.05;;;5.25;;
44516;SDS011;30223;17.182;-96.766;2022-10-16T15:46:18;11.75;;;5.25;;
44516;SDS011;30223;17.182;-96.766;2022-10-16T15:48:47;8.25;;;4.47;;
44516;SDS011;30223;17.182;-96.766;2022-10-16T15:51:14;8.50;;;3.83;;
44516;SDS011;30223;17.182;-96.766;2022-10-16T15:53:41;7.13;;;3.83;;
44516;SDS011;30223;17.182;-96.766;2022-10-16T15:56:08;6.97;;;4.85;;
44516;SDS011;30223;17.182;-96.766;2022-10-16T15:58:36;10.65;;;5.13;;
44516;SDS011;30223;17.182;-96.766;2022-10-16T16:01:03;5.35;;;4.05;;
44516;SDS011;30223;17.182;-96.766;2022-10-16T16:03:31;6.13;;;4.10;;
44516;SDS011;30223;17.182;-96.766;2022-10-16T16:05:58;9.43;;;5.05;;
44516;SDS011;30223;17.182;-96.766;2022-10-16T16:08:29;8.52;;;4.57;;
44516;SDS011;30223;17.182;-96.766;2022-10-16T16:10:59;5.03;;;3.88;;
44516;SDS011;30223;17.182;-96.766;2022-10-16T16:13:38;7.30;;;4.35;;
44516;SDS011;30223;17.182;-96.766;2022-10-16T16:16:11;7.03;;;3.80;;
44516;SDS011;30223;17.182;-96.766;2022-10-16T16:18:40;4.68;;;2.67;;
44516;SDS011;30223;17.182;-96.766;2022-10-16T16:21:09;8.25;;;3.08;;
44516;SDS011;30223;17.182;-96.766;2022-10-16T16:23:36;6.05;;;3.63;;
44516;SDS011;30223;17.182;-96.766;2022-10-16T16:26:07;9.75;;;2.92;;
44516;SDS011;30223;17.182;-96.766;2022-10-16T16:29:04;7.90;;;2.58;;
44516;SDS011;30223;17.182;-96.766;2022-10-16T16:31:31;3.65;;;2.30;;
44516;SDS011;30223;17.182;-96.766;2022-10-16T16:33:59;4.20;;;3.58;;
44516;SDS011;30223;17.182;-96.766;2022-10-16T16:36:26;5.13;;;2.85;;